sensor_id;sensor_type;location;lat;lon;timestamp;P1;durP1;ratioP1;P2;durP2;ratioP2
7647;SDS011;3866;48.020;11.720;2023-04-03T00:00:30;22.43;;;14.00;;
7647;SDS011;3866;48.020;11.720;2023-04-03T00:02:57;18.73;;;14.60;;
7647;SDS011;3866;48.020;11.720;2023-04-03T00:05:25;17.87;;;13.70;;
7647;SDS011;3866;48.020;11.720;2023-04-03T00:07:51;19.93;;;13.57;;
7647;SDS011;3866;48.020;11.720;2023-04-03T00:10:20;19.87;;;14.33;;
7647;SDS011;3866;48.020;11.720;2023-04-03T00:12:47;19.70;;;14.90;;
7647;SDS011;3866;48.020;11.720;2023-04-03T00:15:14;20.13;;;14.33;;
7647;SDS011;3866;48.020;11.720;2023-04-03T00:17:41;19.03;;;14.00;;
7647;SDS011;3866;48.020;11.720;2023-04-03T00:20:08;19.00;;;14.23;;
7647;SDS011;3866;48.020;11.720;2023-04-03T00:22:35;18.77;;;14.37;;
7647;SDS011;3866;48.020;11.720;2023-04-03T00:25:02;20.47;;;14.10;;
7647;SDS011;3866;48.020;11.720;2023-04-03T00:27:31;19.87;;;14.17;;
7647;SDS011;3866;48.020;11.720;2023-04-03T00:29:58;20.17;;;14.33;;
7647;SDS011;3866;48.020;11.720;2023-04-03T00:32:25;20.73;;;13.90;;
7647;SDS011;3866;48.020;11.720;2023-04-03T00:34:52;18.97;;;14.50;;
7647;SDS011;3866;48.020;11.720;2023-04-03T00:37:19;19.77;;;13.23;;
7647;SDS011;3866;48.020;11.720;2023-04-03T00:39:46;18.40;;;13.47;;
7647;SDS011;3866;48.020;11.720;2023-04-03T00:42:12;16.90;;;12.03;;
7647;SDS011;3866;48.020;11.720;2023-04-03T00:47:45;16.10;;;12.30;;
7647;SDS011;3866;48.020;11.720;2023-04-03T00:50:12;14.97;;;11.93;;
7647;SDS011;3866;48.020;11.720;2023-04-03T00:52:39;15.70;;;12.17;;
7647;SDS011;3866;48.020;11.720;2023-04-03T00:55:07;15.67;;;11.37;;
7647;SDS011;3866;48.020;11.720;2023-04-03T00:57:35;15.70;;;12.20;;
7647;SDS011;3866;48.020;11.720;2023-04-03T01:00:04;17.17;;;12.37;;
7647;SDS011;3866;48.020;11.720;2023-04-03T01:02:34;17.13;;;12.00;;
7647;SDS011;3866;48.020;11.720;2023-04-03T01:05:03;15.63;;;11.53;;
7647;SDS011;3866;48.020;11.720;2023-04-03T01:07:31;16.03;;;11.40;;
7647;SDS011;3866;48.020;11.720;2023-04-03T01:10:01;14.63;;;10.77;;
7647;SDS011;3866;48.020;11.720;2023-04-03T01:12:30;15.97;;;11.53;;
7647;SDS011;3866;48.020;11.720;2023-04-03T01:14:59;17.23;;;11.70;;
7647;SDS011;3866;48.020;11.720;2023-04-03T01:17:30;13.37;;;10.23;;
7647;SDS011;3866;48.020;11.720;2023-04-03T01:23:03;14.37;;;10.53;;
7647;SDS011;3866;48.020;11.720;2023-04-03T01:25:40;14.13;;;10.63;;
7647;SDS011;3866;48.020;11.720;2023-04-03T01:28:09;12.17;;;10.30;;
7647;SDS011;3866;48.020;11.720;2023-04-03T01:30:39;17.60;;;11.33;;
7647;SDS011;3866;48.020;11.720;2023-04-03T01:33:13;15.77;;;11.70;;
7647;SDS011;3866;48.020;11.720;2023-04-03T01:35:39;13.87;;;10.67;;
7647;SDS011;3866;48.020;11.720;2023-04-03T01:38:06;13.30;;;10.33;;
7647;SDS011;3866;48.020;11.720;2023-04-03T01:40:33;14.60;;;11.40;;
7647;SDS011;3866;48.020;11.720;2023-04-03T01:43:01;15.17;;;11.57;;
7647;SDS011;3866;48.020;11.720;2023-04-03T01:45:28;14.87;;;11.63;;
7647;SDS011;3866;48.020;11.720;2023-04-03T01:47:55;15.43;;;10.83;;
7647;SDS011;3866;48.020;11.720;2023-04-03T01:50:23;14.47;;;11.33;;
7647;SDS011;3866;48.020;11.720;2023-04-03T01:52:50;14.60;;;11.50;;
7647;SDS011;3866;48.020;11.720;2023-04-03T01:55:17;16.50;;;11.27;;
7647;SDS011;3866;48.020;11.720;2023-04-03T01:57:44;15.53;;;11.80;;
7647;SDS011;3866;48.020;11.720;2023-04-03T02:00:11;16.47;;;11.63;;
7647;SDS011;3866;48.020;11.720;2023-04-03T02:02:38;15.27;;;12.03;;
7647;SDS011;3866;48.020;11.720;2023-04-03T02:05:06;16.77;;;12.50;;
7647;SDS011;3866;48.020;11.720;2023-04-03T02:07:34;16.00;;;12.00;;
7647;SDS011;3866;48.020;11.720;2023-04-03T02:10:02;15.37;;;11.83;;
7647;SDS011;3866;48.020;11.720;2023-04-03T02:12:29;14.40;;;11.77;;
7647;SDS011;3866;48.020;11.720;2023-04-03T02:14:56;14.97;;;12.20;;
7647;SDS011;3866;48.020;11.720;2023-04-03T02:17:23;13.97;;;11.97;;
7647;SDS011;3866;48.020;11.720;2023-04-03T02:19:50;14.90;;;11.93;;
7647;SDS011;3866;48.020;11.720;2023-04-03T02:22:17;15.63;;;12.03;;
7647;SDS011;3866;48.020;11.720;2023-04-03T02:24:46;14.63;;;11.53;;
7647;SDS011;3866;48.020;11.720;2023-04-03T02:27:13;13.60;;;12.13;;
7647;SDS011;3866;48.020;11.720;2023-04-03T02:29:40;15.20;;;11.73;;
7647;SDS011;3866;48.020;11.720;2023-04-03T02:32:07;15.07;;;11.40;;
7647;SDS011;3866;48.020;11.720;2023-04-03T02:34:34;14.17;;;11.40;;
7647;SDS011;3866;48.020;11.720;2023-04-03T02:37:01;13.63;;;10.83;;
7647;SDS011;3866;48.020;11.720;2023-04-03T02:39:28;15.10;;;11.43;;
7647;SDS011;3866;48.020;11.720;2023-04-03T02:41:56;17.90;;;11.93;;
7647;SDS011;3866;48.020;11.720;2023-04-03T02:44:23;15.90;;;12.13;;
7647;SDS011;3866;48.020;11.720;2023-04-03T02:46:50;15.70;;;11.80;;
7647;SDS011;3866;48.020;11.720;2023-04-03T02:49:17;15.07;;;11.83;;
7647;SDS011;3866;48.020;11.720;2023-04-03T02:51:44;14.90;;;11.53;;
7647;SDS011;3866;48.020;11.720;2023-04-03T02:54:11;15.37;;;11.87;;
7647;SDS011;3866;48.020;11.720;2023-04-03T02:56:38;14.20;;;11.27;;
7647;SDS011;3866;48.020;11.720;2023-04-03T02:59:06;17.57;;;12.40;;
7647;SDS011;3866;48.020;11.720;2023-04-03T03:01:33;16.17;;;11.67;;
7647;SDS011;3866;48.020;11.720;2023-04-03T03:04:00;16.40;;;11.77;;
7647;SDS011;3866;48.020;11.720;2023-04-03T03:06:28;14.73;;;12.20;;
7647;SDS011;3866;48.020;11.720;2023-04-03T03:08:55;17.03;;;11.60;;
7647;SDS011;3866;48.020;11.720;2023-04-03T03:11:21;19.73;;;13.60;;
7647;SDS011;3866;48.020;11.720;2023-04-03T03:13:48;18.07;;;13.07;;
7647;SDS011;3866;48.020;11.720;2023-04-03T03:16:17;17.03;;;12.43;;
7647;SDS011;3866;48.020;11.720;2023-04-03T03:18:43;15.23;;;12.00;;
7647;SDS011;3866;48.020;11.720;2023-04-03T03:21:10;15.17;;;11.90;;
7647;SDS011;3866;48.020;11.720;2023-04-03T03:23:37;15.27;;;12.43;;
7647;SDS011;3866;48.020;11.720;2023-04-03T03:26:05;21.53;;;12.37;;
7647;SDS011;3866;48.020;11.720;2023-04-03T03:28:34;17.30;;;12.10;;
7647;SDS011;3866;48.020;11.720;2023-04-03T03:31:02;15.67;;;11.57;;
7647;SDS011;3866;48.020;11.720;2023-04-03T03:33:31;16.93;;;11.80;;
7647;SDS011;3866;48.020;11.720;2023-04-03T03:35:58;14.27;;;12.00;;
7647;SDS011;3866;48.020;11.720;2023-04-03T03:38:26;17.40;;;12.17;;
7647;SDS011;3866;48.020;11.720;2023-04-03T03:40:53;15.37;;;11.53;;
7647;SDS011;3866;48.020;11.720;2023-04-03T03:43:20;19.03;;;12.37;;
7647;SDS011;3866;48.020;11.720;2023-04-03T03:45:49;17.27;;;12.50;;
7647;SDS011;3866;48.020;11.720;2023-04-03T03:48:17;14.13;;;11.70;;
7647;SDS011;3866;48.020;11.720;2023-04-03T03:50:46;16.83;;;12.60;;
7647;SDS011;3866;48.020;11.720;2023-04-03T03:53:13;19.37;;;11.90;;
7647;SDS011;3866;48.020;11.720;2023-04-03T03:55:41;15.47;;;12.47;;
7647;SDS011;3866;48.020;11.720;2023-04-03T03:58:08;14.67;;;12.13;;
7647;SDS011;3866;48.020;11.720;2023-04-03T04:00:35;16.80;;;13.37;;
7647;SDS011;3866;48.020;11.720;2023-04-03T04:03:02;16.07;;;12.60;;
7647;SDS011;3866;48.020;11.720;2023-04-03T04:05:29;12.53;;;10.63;;
7647;SDS011;3866;48.020;11.720;2023-04-03T04:07:58;14.67;;;11.93;;
7647;SDS011;3866;48.020;11.720;2023-04-03T04:10:24;14.80;;;11.30;;
7647;SDS011;3866;48.020;11.720;2023-04-03T04:12:51;16.03;;;12.13;;
7647;SDS011;3866;48.020;11.720;2023-04-03T04:15:18;18.27;;;12.83;;
7647;SDS011;3866;48.020;11.720;2023-04-03T04:17:46;23.20;;;15.53;;
7647;SDS011;3866;48.020;11.720;2023-04-03T04:20:13;13.93;;;11.33;;
7647;SDS011;3866;48.020;11.720;2023-04-03T04:22:40;16.40;;;11.67;;
7647;SDS011;3866;48.020;11.720;2023-04-03T04:25:09;12.73;;;10.23;;
7647;SDS011;3866;48.020;11.720;2023-04-03T04:27:36;11.47;;;10.03;;
7647;SDS011;3866;48.020;11.720;2023-04-03T04:30:03;12.80;;;10.13;;
7647;SDS011;3866;48.020;11.720;2023-04-03T04:32:31;15.80;;;10.30;;
7647;SDS011;3866;48.020;11.720;2023-04-03T04:34:58;14.20;;;10.60;;
7647;SDS011;3866;48.020;11.720;2023-04-03T04:37:25;14.17;;;10.87;;
7647;SDS011;3866;48.020;11.720;2023-04-03T04:39:52;15.33;;;11.00;;
7647;SDS011;3866;48.020;11.720;2023-04-03T04:42:20;15.33;;;11.07;;
7647;SDS011;3866;48.020;11.720;2023-04-03T04:44:47;13.67;;;10.40;;
7647;SDS011;3866;48.020;11.720;2023-04-03T04:47:14;12.87;;;9.80;;
7647;SDS011;3866;48.020;11.720;2023-04-03T04:49:41;11.83;;;10.13;;
7647;SDS011;3866;48.020;11.720;2023-04-03T04:52:08;15.20;;;9.77;;
7647;SDS011;3866;48.020;11.720;2023-04-03T04:54:35;12.50;;;9.90;;
7647;SDS011;3866;48.020;11.720;2023-04-03T04:57:02;14.17;;;11.10;;
7647;SDS011;3866;48.020;11.720;2023-04-03T04:59:30;12.53;;;10.43;;
7647;SDS011;3866;48.020;11.720;2023-04-03T05:01:57;11.27;;;8.90;;
7647;SDS011;3866;48.020;11.720;2023-04-03T05:04:24;12.80;;;10.20;;
7647;SDS011;3866;48.020;11.720;2023-04-03T05:06:51;12.83;;;9.97;;
7647;SDS011;3866;48.020;11.720;2023-04-03T05:09:18;12.33;;;10.40;;
7647;SDS011;3866;48.020;11.720;2023-04-03T05:11:45;14.87;;;10.67;;
7647;SDS011;3866;48.020;11.720;2023-04-03T05:14:12;11.93;;;9.77;;
7647;SDS011;3866;48.020;11.720;2023-04-03T05:16:40;10.60;;;9.13;;
7647;SDS011;3866;48.020;11.720;2023-04-03T05:19:07;12.17;;;10.20;;
7647;SDS011;3866;48.020;11.720;2023-04-03T05:21:34;12.43;;;10.23;;
7647;SDS011;3866;48.020;11.720;2023-04-03T05:24:01;12.27;;;9.80;;
7647;SDS011;3866;48.020;11.720;2023-04-03T05:26:28;12.27;;;9.80;;
7647;SDS011;3866;48.020;11.720;2023-04-03T05:28:56;12.83;;;10.13;;
7647;SDS011;3866;48.020;11.720;2023-04-03T05:31:22;12.83;;;9.20;;
7647;SDS011;3866;48.020;11.720;2023-04-03T05:33:51;10.97;;;9.40;;
7647;SDS011;3866;48.020;11.720;2023-04-03T05:36:18;12.03;;;9.50;;
7647;SDS011;3866;48.020;11.720;2023-04-03T05:38:45;11.63;;;9.23;;
7647;SDS011;3866;48.020;11.720;2023-04-03T05:41:12;13.10;;;10.63;;
7647;SDS011;3866;48.020;11.720;2023-04-03T05:43:39;11.73;;;10.30;;
7647;SDS011;3866;48.020;11.720;2023-04-03T05:46:08;13.37;;;10.30;;
7647;SDS011;3866;48.020;11.720;2023-04-03T05:48:36;11.03;;;9.73;;
7647;SDS011;3866;48.020;11.720;2023-04-03T05:51:05;12.03;;;9.20;;
7647;SDS011;3866;48.020;11.720;2023-04-03T05:53:33;10.63;;;8.90;;
7647;SDS011;3866;48.020;11.720;2023-04-03T05:56:02;11.20;;;8.57;;
7647;SDS011;3866;48.020;11.720;2023-04-03T05:58:29;9.47;;;8.30;;
7647;SDS011;3866;48.020;11.720;2023-04-03T06:00:56;10.23;;;8.43;;
7647;SDS011;3866;48.020;11.720;2023-04-03T06:03:23;13.33;;;8.83;;
7647;SDS011;3866;48.020;11.720;2023-04-03T06:05:50;11.60;;;9.13;;
7647;SDS011;3866;48.020;11.720;2023-04-03T06:08:19;11.17;;;8.47;;
7647;SDS011;3866;48.020;11.720;2023-04-03T06:10:45;11.20;;;8.47;;
7647;SDS011;3866;48.020;11.720;2023-04-03T06:13:12;10.27;;;8.83;;
7647;SDS011;3866;48.020;11.720;2023-04-03T06:15:40;9.97;;;8.47;;
7647;SDS011;3866;48.020;11.720;2023-04-03T06:18:07;9.23;;;8.07;;
7647;SDS011;3866;48.020;11.720;2023-04-03T06:20:34;9.47;;;7.37;;
7647;SDS011;3866;48.020;11.720;2023-04-03T06:23:01;8.53;;;7.47;;
7647;SDS011;3866;48.020;11.720;2023-04-03T06:25:29;10.53;;;8.10;;
7647;SDS011;3866;48.020;11.720;2023-04-03T06:27:56;10.00;;;7.70;;
7647;SDS011;3866;48.020;11.720;2023-04-03T06:30:23;9.27;;;7.47;;
7647;SDS011;3866;48.020;11.720;2023-04-03T06:32:51;8.57;;;7.07;;
7647;SDS011;3866;48.020;11.720;2023-04-03T06:35:18;8.00;;;7.20;;
7647;SDS011;3866;48.020;11.720;2023-04-03T06:37:46;7.93;;;7.13;;
7647;SDS011;3866;48.020;11.720;2023-04-03T06:40:14;7.20;;;6.50;;
7647;SDS011;3866;48.020;11.720;2023-04-03T06:42:48;7.70;;;6.63;;
7647;SDS011;3866;48.020;11.720;2023-04-03T06:45:15;9.77;;;6.70;;
7647;SDS011;3866;48.020;11.720;2023-04-03T06:47:42;8.43;;;6.70;;
7647;SDS011;3866;48.020;11.720;2023-04-03T06:50:10;10.67;;;7.30;;
7647;SDS011;3866;48.020;11.720;2023-04-03T06:52:39;8.43;;;6.97;;
7647;SDS011;3866;48.020;11.720;2023-04-03T06:55:06;8.13;;;6.53;;
7647;SDS011;3866;48.020;11.720;2023-04-03T06:57:34;8.40;;;6.90;;
7647;SDS011;3866;48.020;11.720;2023-04-03T07:00:04;7.80;;;6.70;;
7647;SDS011;3866;48.020;11.720;2023-04-03T07:02:32;8.70;;;7.13;;
7647;SDS011;3866;48.020;11.720;2023-04-03T07:04:59;7.60;;;6.90;;
7647;SDS011;3866;48.020;11.720;2023-04-03T07:07:26;7.17;;;6.33;;
7647;SDS011;3866;48.020;11.720;2023-04-03T07:09:53;8.27;;;6.87;;
7647;SDS011;3866;48.020;11.720;2023-04-03T07:12:20;8.97;;;7.00;;
7647;SDS011;3866;48.020;11.720;2023-04-03T07:14:47;8.30;;;6.57;;
7647;SDS011;3866;48.020;11.720;2023-04-03T07:17:15;10.90;;;7.37;;
7647;SDS011;3866;48.020;11.720;2023-04-03T07:19:42;8.60;;;7.33;;
7647;SDS011;3866;48.020;11.720;2023-04-03T07:22:09;8.50;;;7.53;;
7647;SDS011;3866;48.020;11.720;2023-04-03T07:24:37;8.50;;;6.90;;
7647;SDS011;3866;48.020;11.720;2023-04-03T07:27:04;7.20;;;6.50;;
7647;SDS011;3866;48.020;11.720;2023-04-03T07:29:33;6.87;;;6.17;;
7647;SDS011;3866;48.020;11.720;2023-04-03T07:32:00;8.63;;;7.20;;
7647;SDS011;3866;48.020;11.720;2023-04-03T07:34:28;7.47;;;6.10;;
7647;SDS011;3866;48.020;11.720;2023-04-03T07:36:55;8.00;;;6.57;;
7647;SDS011;3866;48.020;11.720;2023-04-03T07:39:22;9.07;;;5.57;;
7647;SDS011;3866;48.020;11.720;2023-04-03T07:41:49;7.00;;;6.30;;
7647;SDS011;3866;48.020;11.720;2023-04-03T07:44:16;8.03;;;5.80;;
7647;SDS011;3866;48.020;11.720;2023-04-03T07:46:43;6.90;;;5.83;;
7647;SDS011;3866;48.020;11.720;2023-04-03T07:49:11;7.60;;;6.00;;
7647;SDS011;3866;48.020;11.720;2023-04-03T07:51:40;6.03;;;5.43;;
7647;SDS011;3866;48.020;11.720;2023-04-03T07:54:07;8.23;;;5.57;;
7647;SDS011;3866;48.020;11.720;2023-04-03T07:56:33;6.07;;;5.50;;
7647;SDS011;3866;48.020;11.720;2023-04-03T07:59:00;7.27;;;6.23;;
7647;SDS011;3866;48.020;11.720;2023-04-03T08:01:27;6.60;;;6.00;;
7647;SDS011;3866;48.020;11.720;2023-04-03T08:03:57;5.80;;;5.10;;
7647;SDS011;3866;48.020;11.720;2023-04-03T08:06:24;6.17;;;5.30;;
7647;SDS011;3866;48.020;11.720;2023-04-03T08:08:52;6.73;;;6.13;;
7647;SDS011;3866;48.020;11.720;2023-04-03T08:11:19;7.20;;;5.77;;
7647;SDS011;3866;48.020;11.720;2023-04-03T08:13:46;9.57;;;8.67;;
7647;SDS011;3866;48.020;11.720;2023-04-03T08:16:15;6.17;;;5.57;;
7647;SDS011;3866;48.020;11.720;2023-04-03T08:18:46;7.07;;;5.33;;
7647;SDS011;3866;48.020;11.720;2023-04-03T08:21:14;7.47;;;5.67;;
7647;SDS011;3866;48.020;11.720;2023-04-03T08:23:41;7.47;;;5.93;;
7647;SDS011;3866;48.020;11.720;2023-04-03T08:26:10;6.23;;;5.63;;
7647;SDS011;3866;48.020;11.720;2023-04-03T08:28:38;8.13;;;5.50;;
7647;SDS011;3866;48.020;11.720;2023-04-03T08:31:06;7.43;;;5.43;;
7647;SDS011;3866;48.020;11.720;2023-04-03T08:33:36;6.80;;;5.70;;
7647;SDS011;3866;48.020;11.720;2023-04-03T08:36:04;7.37;;;6.40;;
7647;SDS011;3866;48.020;11.720;2023-04-03T08:38:32;6.10;;;5.50;;
7647;SDS011;3866;48.020;11.720;2023-04-03T08:41:05;5.90;;;5.30;;
7647;SDS011;3866;48.020;11.720;2023-04-03T08:43:43;6.53;;;5.03;;
7647;SDS011;3866;48.020;11.720;2023-04-03T08:46:22;6.73;;;5.33;;
7647;SDS011;3866;48.020;11.720;2023-04-03T08:48:57;5.30;;;4.80;;
7647;SDS011;3866;48.020;11.720;2023-04-03T08:51:25;6.13;;;5.23;;
7647;SDS011;3866;48.020;11.720;2023-04-03T08:53:55;6.97;;;5.20;;
7647;SDS011;3866;48.020;11.720;2023-04-03T08:56:27;6.30;;;5.70;;
7647;SDS011;3866;48.020;11.720;2023-04-03T08:58:55;7.77;;;5.80;;
7647;SDS011;3866;48.020;11.720;2023-04-03T09:01:26;7.33;;;5.60;;
7647;SDS011;3866;48.020;11.720;2023-04-03T09:03:56;6.47;;;5.77;;
7647;SDS011;3866;48.020;11.720;2023-04-03T09:06:23;6.83;;;5.50;;
7647;SDS011;3866;48.020;11.720;2023-04-03T09:08:56;7.60;;;5.50;;
7647;SDS011;3866;48.020;11.720;2023-04-03T09:11:40;6.23;;;5.27;;
7647;SDS011;3866;48.020;11.720;2023-04-03T09:14:13;5.97;;;5.37;;
7647;SDS011;3866;48.020;11.720;2023-04-03T09:16:49;6.63;;;5.67;;
7647;SDS011;3866;48.020;11.720;2023-04-03T09:19:21;8.00;;;6.10;;
7647;SDS011;3866;48.020;11.720;2023-04-03T09:22:02;5.47;;;4.97;;
7647;SDS011;3866;48.020;11.720;2023-04-03T09:24:38;6.27;;;5.43;;
7647;SDS011;3866;48.020;11.720;2023-04-03T09:27:09;5.50;;;5.00;;
7647;SDS011;3866;48.020;11.720;2023-04-03T09:29:38;6.80;;;5.03;;
7647;SDS011;3866;48.020;11.720;2023-04-03T09:32:12;6.13;;;5.47;;
7647;SDS011;3866;48.020;11.720;2023-04-03T09:34:47;5.97;;;5.27;;
7647;SDS011;3866;48.020;11.720;2023-04-03T09:40:05;6.30;;;5.70;;
7647;SDS011;3866;48.020;11.720;2023-04-03T09:42:55;5.40;;;4.90;;
7647;SDS011;3866;48.020;11.720;2023-04-03T09:45:25;5.20;;;4.67;;
7647;SDS011;3866;48.020;11.720;2023-04-03T09:48:07;6.07;;;5.03;;
7647;SDS011;3866;48.020;11.720;2023-04-03T09:50:41;5.20;;;4.73;;
7647;SDS011;3866;48.020;11.720;2023-04-03T09:53:25;5.90;;;4.60;;
7647;SDS011;3866;48.020;11.720;2023-04-03T09:56:00;7.03;;;4.63;;
7647;SDS011;3866;48.020;11.720;2023-04-03T09:58:31;8.87;;;4.37;;
7647;SDS011;3866;48.020;11.720;2023-04-03T10:01:02;5.23;;;4.50;;
7647;SDS011;3866;48.020;11.720;2023-04-03T10:03:30;5.70;;;5.03;;
7647;SDS011;3866;48.020;11.720;2023-04-03T10:06:00;5.97;;;5.00;;
7647;SDS011;3866;48.020;11.720;2023-04-03T10:08:29;5.77;;;4.63;;
7647;SDS011;3866;48.020;11.720;2023-04-03T10:11:07;6.67;;;5.40;;
7647;SDS011;3866;48.020;11.720;2023-04-03T10:13:48;4.97;;;4.47;;
7647;SDS011;3866;48.020;11.720;2023-04-03T10:16:17;5.87;;;4.97;;
7647;SDS011;3866;48.020;11.720;2023-04-03T10:18:49;5.90;;;4.50;;
7647;SDS011;3866;48.020;11.720;2023-04-03T10:21:26;7.60;;;6.90;;
7647;SDS011;3866;48.020;11.720;2023-04-03T10:24:04;6.83;;;5.30;;
7647;SDS011;3866;48.020;11.720;2023-04-03T10:26:38;5.83;;;5.33;;
7647;SDS011;3866;48.020;11.720;2023-04-03T10:29:15;6.77;;;6.17;;
7647;SDS011;3866;48.020;11.720;2023-04-03T10:31:56;5.83;;;5.23;;
7647;SDS011;3866;48.020;11.720;2023-04-03T10:34:31;6.40;;;5.80;;
7647;SDS011;3866;48.020;11.720;2023-04-03T10:37:05;7.43;;;5.00;;
7647;SDS011;3866;48.020;11.720;2023-04-03T10:39:39;7.50;;;4.97;;
7647;SDS011;3866;48.020;11.720;2023-04-03T10:42:14;5.90;;;4.73;;
7647;SDS011;3866;48.020;11.720;2023-04-03T10:44:55;8.53;;;5.73;;
7647;SDS011;3866;48.020;11.720;2023-04-03T10:47:32;7.97;;;5.50;;
7647;SDS011;3866;48.020;11.720;2023-04-03T10:50:09;4.70;;;4.30;;
7647;SDS011;3866;48.020;11.720;2023-04-03T10:52:54;7.13;;;4.50;;
7647;SDS011;3866;48.020;11.720;2023-04-03T10:55:30;4.10;;;3.70;;
7647;SDS011;3866;48.020;11.720;2023-04-03T10:58:02;3.23;;;2.90;;
7647;SDS011;3866;48.020;11.720;2023-04-03T11:00:35;3.00;;;2.60;;
7647;SDS011;3866;48.020;11.720;2023-04-03T11:03:07;3.23;;;2.57;;
7647;SDS011;3866;48.020;11.720;2023-04-03T11:05:40;5.73;;;2.60;;
7647;SDS011;3866;48.020;11.720;2023-04-03T11:08:11;5.30;;;3.03;;
7647;SDS011;3866;48.020;11.720;2023-04-03T11:10:46;6.07;;;2.90;;
7647;SDS011;3866;48.020;11.720;2023-04-03T11:13:17;14.80;;;3.67;;
7647;SDS011;3866;48.020;11.720;2023-04-03T11:15:50;12.53;;;6.47;;
7647;SDS011;3866;48.020;11.720;2023-04-03T11:18:19;10.37;;;3.47;;
7647;SDS011;3866;48.020;11.720;2023-04-03T11:20:53;7.07;;;6.37;;
7647;SDS011;3866;48.020;11.720;2023-04-03T11:23:28;4.43;;;4.03;;
7647;SDS011;3866;48.020;11.720;2023-04-03T11:26:00;4.67;;;4.10;;
7647;SDS011;3866;48.020;11.720;2023-04-03T11:28:33;4.70;;;4.33;;
7647;SDS011;3866;48.020;11.720;2023-04-03T11:31:06;5.23;;;4.77;;
7647;SDS011;3866;48.020;11.720;2023-04-03T11:33:51;6.00;;;5.40;;
7647;SDS011;3866;48.020;11.720;2023-04-03T11:36:29;6.80;;;5.73;;
7647;SDS011;3866;48.020;11.720;2023-04-03T11:38:59;6.97;;;6.37;;
7647;SDS011;3866;48.020;11.720;2023-04-03T11:41:32;6.57;;;5.30;;
7647;SDS011;3866;48.020;11.720;2023-04-03T11:44:00;6.43;;;5.83;;
7647;SDS011;3866;48.020;11.720;2023-04-03T11:58:22;8.67;;;6.70;;
7647;SDS011;3866;48.020;11.720;2023-04-03T12:00:55;7.23;;;6.07;;
7647;SDS011;3866;48.020;11.720;2023-04-03T12:03:40;8.03;;;6.40;;
7647;SDS011;3866;48.020;11.720;2023-04-03T12:12:43;7.20;;;4.30;;
7647;SDS011;3866;48.020;11.720;2023-04-03T12:21:21;5.73;;;4.37;;
7647;SDS011;3866;48.020;11.720;2023-04-03T12:23:59;5.73;;;4.37;;
7647;SDS011;3866;48.020;11.720;2023-04-03T12:26:30;6.17;;;4.67;;
7647;SDS011;3866;48.020;11.720;2023-04-03T12:29:02;7.53;;;4.67;;
7647;SDS011;3866;48.020;11.720;2023-04-03T12:31:43;5.70;;;3.50;;
7647;SDS011;3866;48.020;11.720;2023-04-03T12:34:24;6.67;;;4.43;;
7647;SDS011;3866;48.020;11.720;2023-04-03T12:37:00;6.47;;;4.50;;
7647;SDS011;3866;48.020;11.720;2023-04-03T12:39:36;6.10;;;5.30;;
7647;SDS011;3866;48.020;11.720;2023-04-03T12:42:30;5.47;;;4.50;;
7647;SDS011;3866;48.020;11.720;2023-04-03T12:45:10;5.23;;;4.80;;
7647;SDS011;3866;48.020;11.720;2023-04-03T12:47:45;6.47;;;4.00;;
7647;SDS011;3866;48.020;11.720;2023-04-03T12:50:18;6.00;;;4.57;;
7647;SDS011;3866;48.020;11.720;2023-04-03T12:52:50;6.13;;;4.83;;
7647;SDS011;3866;48.020;11.720;2023-04-03T12:55:21;5.17;;;4.30;;
7647;SDS011;3866;48.020;11.720;2023-04-03T12:57:48;5.00;;;4.57;;
7647;SDS011;3866;48.020;11.720;2023-04-03T13:00:27;5.07;;;4.43;;
7647;SDS011;3866;48.020;11.720;2023-04-03T13:02:57;7.93;;;5.03;;
7647;SDS011;3866;48.020;11.720;2023-04-03T13:05:26;4.93;;;4.43;;
7647;SDS011;3866;48.020;11.720;2023-04-03T13:07:57;5.17;;;4.57;;
7647;SDS011;3866;48.020;11.720;2023-04-03T13:10:27;3.60;;;3.20;;
7647;SDS011;3866;48.020;11.720;2023-04-03T13:12:55;4.67;;;3.70;;
7647;SDS011;3866;48.020;11.720;2023-04-03T13:15:23;4.37;;;3.57;;
7647;SDS011;3866;48.020;11.720;2023-04-03T13:17:53;6.40;;;3.37;;
7647;SDS011;3866;48.020;11.720;2023-04-03T13:20:22;3.87;;;3.17;;
7647;SDS011;3866;48.020;11.720;2023-04-03T13:22:56;6.53;;;3.53;;
7647;SDS011;3866;48.020;11.720;2023-04-03T13:25:29;4.90;;;3.70;;
7647;SDS011;3866;48.020;11.720;2023-04-03T13:27:59;5.47;;;3.60;;
7647;SDS011;3866;48.020;11.720;2023-04-03T13:30:31;4.43;;;3.57;;
7647;SDS011;3866;48.020;11.720;2023-04-03T13:33:01;3.47;;;3.03;;
7647;SDS011;3866;48.020;11.720;2023-04-03T13:35:35;3.10;;;2.63;;
7647;SDS011;3866;48.020;11.720;2023-04-03T13:38:04;4.47;;;2.97;;
7647;SDS011;3866;48.020;11.720;2023-04-03T13:40:48;3.80;;;2.63;;
7647;SDS011;3866;48.020;11.720;2023-04-03T13:43:17;2.60;;;2.40;;
7647;SDS011;3866;48.020;11.720;2023-04-03T13:45:53;4.27;;;2.77;;
7647;SDS011;3866;48.020;11.720;2023-04-03T13:48:25;3.67;;;2.60;;
7647;SDS011;3866;48.020;11.720;2023-04-03T13:50:56;3.00;;;2.30;;
7647;SDS011;3866;48.020;11.720;2023-04-03T13:53:26;4.20;;;2.43;;
7647;SDS011;3866;48.020;11.720;2023-04-03T13:55:56;5.17;;;2.70;;
7647;SDS011;3866;48.020;11.720;2023-04-03T13:58:33;6.27;;;2.20;;
7647;SDS011;3866;48.020;11.720;2023-04-03T14:01:05;2.90;;;2.33;;
7647;SDS011;3866;48.020;11.720;2023-04-03T14:03:38;2.70;;;2.20;;
7647;SDS011;3866;48.020;11.720;2023-04-03T14:06:12;2.67;;;2.03;;
7647;SDS011;3866;48.020;11.720;2023-04-03T14:08:42;6.10;;;2.57;;
7647;SDS011;3866;48.020;11.720;2023-04-03T14:11:11;3.13;;;2.10;;
7647;SDS011;3866;48.020;11.720;2023-04-03T14:13:41;4.17;;;2.80;;
7647;SDS011;3866;48.020;11.720;2023-04-03T14:16:11;2.23;;;1.73;;
7647;SDS011;3866;48.020;11.720;2023-04-03T14:18:40;2.70;;;1.57;;
7647;SDS011;3866;48.020;11.720;2023-04-03T14:21:08;2.17;;;1.40;;
7647;SDS011;3866;48.020;11.720;2023-04-03T14:23:39;3.10;;;1.47;;
7647;SDS011;3866;48.020;11.720;2023-04-03T14:26:08;4.73;;;1.90;;
7647;SDS011;3866;48.020;11.720;2023-04-03T14:28:38;2.87;;;1.77;;
7647;SDS011;3866;48.020;11.720;2023-04-03T14:31:06;2.97;;;1.70;;
7647;SDS011;3866;48.020;11.720;2023-04-03T14:33:33;2.17;;;1.57;;
7647;SDS011;3866;48.020;11.720;2023-04-03T14:36:02;1.70;;;1.60;;
7647;SDS011;3866;48.020;11.720;2023-04-03T14:38:39;2.97;;;1.53;;
7647;SDS011;3866;48.020;11.720;2023-04-03T14:41:07;2.43;;;2.03;;
7647;SDS011;3866;48.020;11.720;2023-04-03T14:43:36;2.33;;;1.40;;
7647;SDS011;3866;48.020;11.720;2023-04-03T14:46:04;2.10;;;1.90;;
7647;SDS011;3866;48.020;11.720;2023-04-03T14:48:31;3.10;;;1.80;;
7647;SDS011;3866;48.020;11.720;2023-04-03T14:50:58;2.57;;;2.07;;
7647;SDS011;3866;48.020;11.720;2023-04-03T14:53:27;1.60;;;1.50;;
7647;SDS011;3866;48.020;11.720;2023-04-03T14:55:54;2.17;;;1.70;;
7647;SDS011;3866;48.020;11.720;2023-04-03T14:58:21;3.07;;;2.07;;
7647;SDS011;3866;48.020;11.720;2023-04-03T15:00:48;2.97;;;1.50;;
7647;SDS011;3866;48.020;11.720;2023-04-03T15:03:15;4.10;;;1.87;;
7647;SDS011;3866;48.020;11.720;2023-04-03T15:05:43;2.20;;;1.70;;
7647;SDS011;3866;48.020;11.720;2023-04-03T15:08:15;2.17;;;1.50;;
7647;SDS011;3866;48.020;11.720;2023-04-03T15:10:47;2.70;;;1.40;;
7647;SDS011;3866;48.020;11.720;2023-04-03T15:13:15;2.50;;;1.80;;
7647;SDS011;3866;48.020;11.720;2023-04-03T15:15:41;1.93;;;1.77;;
7647;SDS011;3866;48.020;11.720;2023-04-03T15:18:10;2.17;;;1.40;;
7647;SDS011;3866;48.020;11.720;2023-04-03T15:20:41;2.07;;;1.47;;
7647;SDS011;3866;48.020;11.720;2023-04-03T15:23:08;1.30;;;1.27;;
7647;SDS011;3866;48.020;11.720;2023-04-03T15:25:36;2.10;;;1.73;;
7647;SDS011;3866;48.020;11.720;2023-04-03T15:28:05;2.03;;;1.47;;
7647;SDS011;3866;48.020;11.720;2023-04-03T15:30:36;1.90;;;1.50;;
7647;SDS011;3866;48.020;11.720;2023-04-03T15:33:05;2.47;;;1.53;;
7647;SDS011;3866;48.020;11.720;2023-04-03T15:35:32;3.07;;;1.87;;
7647;SDS011;3866;48.020;11.720;2023-04-03T15:37:59;3.00;;;1.90;;